Brymbo, United Kingdom
Current Conditions -  °F | °C
As of 7:50 AM on Thursday 23 Oct 2014 (Local Time) from EGNR Reporting Station
Broken Clouds Broken Clouds  
Wind Chill: 12°   Ceiling: 1800
Heat Index: 12°   Visibility: 6mi
Dew Point: 10°   Wind: 7mph
Humidity: 88%   Direction: 170°S
Pressure: 30"   Gusts: NA
Location:  53.07°N, 3.07°W
Report Text: EGNR 230650Z 17006KT 9999 BKN018 12/10 Q1016
Loading
Personal Weather Stations






























Interactive Weather Map
Tropical Storm Tracking
New forecast layout! Learn more

10-Day Weather Forecast

Advertisements
Track Severe Weather on mobile